sensor_id;sensor_type;location;lat;lon;timestamp;temperature;humidity
9847;DHT22;4962;50.084;8.794;2023-03-01T00:00:04;3.90;94.00
9847;DHT22;4962;50.084;8.794;2023-03-01T00:02:34;3.90;94.10
9847;DHT22;4962;50.084;8.794;2023-03-01T00:05:01;3.90;94.20
9847;DHT22;4962;50.084;8.794;2023-03-01T00:07:30;3.90;94.20
9847;DHT22;4962;50.084;8.794;2023-03-01T00:09:56;3.90;94.20
9847;DHT22;4962;50.084;8.794;2023-03-01T00:12:24;3.90;94.30
9847;DHT22;4962;50.084;8.794;2023-03-01T00:14:51;3.90;94.30
9847;DHT22;4962;50.084;8.794;2023-03-01T00:17:18;3.80;94.40
9847;DHT22;4962;50.084;8.794;2023-03-01T00:19:46;3.70;94.30
9847;DHT22;4962;50.084;8.794;2023-03-01T00:22:13;3.70;94.40
9847;DHT22;4962;50.084;8.794;2023-03-01T00:24:40;3.70;94.50
9847;DHT22;4962;50.084;8.794;2023-03-01T00:27:07;3.70;94.60
9847;DHT22;4962;50.084;8.794;2023-03-01T00:29:34;3.70;94.70
9847;DHT22;4962;50.084;8.794;2023-03-01T00:32:01;3.70;94.80
9847;DHT22;4962;50.084;8.794;2023-03-01T00:34:28;3.60;94.70
9847;DHT22;4962;50.084;8.794;2023-03-01T00:36:56;3.70;94.80
9847;DHT22;4962;50.084;8.794;2023-03-01T00:39:30;3.70;94.90
9847;DHT22;4962;50.084;8.794;2023-03-01T00:41:58;3.60;94.90
9847;DHT22;4962;50.084;8.794;2023-03-01T00:44:24;3.70;94.90
9847;DHT22;4962;50.084;8.794;2023-03-01T00:46:52;3.70;94.90
9847;DHT22;4962;50.084;8.794;2023-03-01T00:49:19;3.70;95.00
9847;DHT22;4962;50.084;8.794;2023-03-01T00:51:45;3.70;95.00
9847;DHT22;4962;50.084;8.794;2023-03-01T00:54:14;3.60;95.00
9847;DHT22;4962;50.084;8.794;2023-03-01T00:56:41;3.60;95.10
9847;DHT22;4962;50.084;8.794;2023-03-01T00:59:08;3.60;95.10
9847;DHT22;4962;50.084;8.794;2023-03-01T01:01:35;3.60;95.20
9847;DHT22;4962;50.084;8.794;2023-03-01T01:04:06;3.60;95.10
9847;DHT22;4962;50.084;8.794;2023-03-01T01:06:35;3.70;95.10
9847;DHT22;4962;50.084;8.794;2023-03-01T01:09:04;3.70;95.20
9847;DHT22;4962;50.084;8.794;2023-03-01T01:11:33;3.70;95.10
9847;DHT22;4962;50.084;8.794;2023-03-01T01:14:00;3.80;95.10
9847;DHT22;4962;50.084;8.794;2023-03-01T01:16:28;3.80;95.10
9847;DHT22;4962;50.084;8.794;2023-03-01T01:18:55;3.80;95.40
9847;DHT22;4962;50.084;8.794;2023-03-01T01:21:24;3.80;94.90
9847;DHT22;4962;50.084;8.794;2023-03-01T01:23:51;3.90;95.00
9847;DHT22;4962;50.084;8.794;2023-03-01T01:26:20;3.80;95.00
9847;DHT22;4962;50.084;8.794;2023-03-01T01:28:49;3.90;95.00
9847;DHT22;4962;50.084;8.794;2023-03-01T01:31:17;3.90;95.00
9847;DHT22;4962;50.084;8.794;2023-03-01T01:33:45;3.70;94.90
9847;DHT22;4962;50.084;8.794;2023-03-01T01:36:12;3.80;94.90
9847;DHT22;4962;50.084;8.794;2023-03-01T01:38:39;3.80;95.00
9847;DHT22;4962;50.084;8.794;2023-03-01T01:41:08;3.80;95.00
9847;DHT22;4962;50.084;8.794;2023-03-01T01:43:39;3.70;94.90
9847;DHT22;4962;50.084;8.794;2023-03-01T01:46:20;3.70;95.00
9847;DHT22;4962;50.084;8.794;2023-03-01T01:48:52;3.60;95.00
9847;DHT22;4962;50.084;8.794;2023-03-01T01:51:23;3.70;95.20
9847;DHT22;4962;50.084;8.794;2023-03-01T01:53:56;3.60;95.30
9847;DHT22;4962;50.084;8.794;2023-03-01T01:56:27;3.50;95.30
9847;DHT22;4962;50.084;8.794;2023-03-01T01:58:55;3.50;95.30
9847;DHT22;4962;50.084;8.794;2023-03-01T02:01:23;3.40;95.40
9847;DHT22;4962;50.084;8.794;2023-03-01T02:03:51;3.30;95.40
9847;DHT22;4962;50.084;8.794;2023-03-01T02:06:22;3.30;95.50
9847;DHT22;4962;50.084;8.794;2023-03-01T02:08:55;3.30;95.60
9847;DHT22;4962;50.084;8.794;2023-03-01T02:11:24;3.30;95.70
9847;DHT22;4962;50.084;8.794;2023-03-01T02:13:54;3.30;95.70
9847;DHT22;4962;50.084;8.794;2023-03-01T02:16:23;3.30;95.80
9847;DHT22;4962;50.084;8.794;2023-03-01T02:18:51;3.20;95.80
9847;DHT22;4962;50.084;8.794;2023-03-01T02:21:29;3.20;95.80
9847;DHT22;4962;50.084;8.794;2023-03-01T02:23:59;3.20;95.80
9847;DHT22;4962;50.084;8.794;2023-03-01T02:26:33;3.20;95.80
9847;DHT22;4962;50.084;8.794;2023-03-01T02:29:04;3.00;95.80
9847;DHT22;4962;50.084;8.794;2023-03-01T02:31:32;3.30;96.10
9847;DHT22;4962;50.084;8.794;2023-03-01T02:34:09;3.00;96.10
9847;DHT22;4962;50.084;8.794;2023-03-01T02:36:39;2.90;96.20
9847;DHT22;4962;50.084;8.794;2023-03-01T02:39:08;2.90;96.40
9847;DHT22;4962;50.084;8.794;2023-03-01T02:41:44;2.80;96.50
9847;DHT22;4962;50.084;8.794;2023-03-01T02:44:14;2.80;96.60
9847;DHT22;4962;50.084;8.794;2023-03-01T02:46:47;2.70;96.80
9847;DHT22;4962;50.084;8.794;2023-03-01T02:49:23;2.80;96.80
9847;DHT22;4962;50.084;8.794;2023-03-01T02:52:07;2.60;97.00
9847;DHT22;4962;50.084;8.794;2023-03-01T02:54:40;2.60;97.10
9847;DHT22;4962;50.084;8.794;2023-03-01T02:57:09;2.80;97.20
9847;DHT22;4962;50.084;8.794;2023-03-01T02:59:39;2.70;97.10
9847;DHT22;4962;50.084;8.794;2023-03-01T03:02:16;2.70;97.00
9847;DHT22;4962;50.084;8.794;2023-03-01T03:04:45;2.80;97.30
9847;DHT22;4962;50.084;8.794;2023-03-01T03:07:13;2.80;96.80
9847;DHT22;4962;50.084;8.794;2023-03-01T03:09:40;2.80;96.90
9847;DHT22;4962;50.084;8.794;2023-03-01T03:12:06;2.80;97.00
9847;DHT22;4962;50.084;8.794;2023-03-01T03:14:33;2.80;97.00
9847;DHT22;4962;50.084;8.794;2023-03-01T03:17:02;2.90;96.90
9847;DHT22;4962;50.084;8.794;2023-03-01T03:19:32;2.90;96.90
9847;DHT22;4962;50.084;8.794;2023-03-01T03:21:58;3.00;96.80
9847;DHT22;4962;50.084;8.794;2023-03-01T03:24:25;3.00;96.80
9847;DHT22;4962;50.084;8.794;2023-03-01T03:26:54;3.00;96.70
9847;DHT22;4962;50.084;8.794;2023-03-01T03:29:21;3.10;96.70
9847;DHT22;4962;50.084;8.794;2023-03-01T03:31:48;3.00;96.60
9847;DHT22;4962;50.084;8.794;2023-03-01T03:34:16;3.00;96.80
9847;DHT22;4962;50.084;8.794;2023-03-01T03:36:43;3.00;96.80
9847;DHT22;4962;50.084;8.794;2023-03-01T03:39:10;2.90;96.80
9847;DHT22;4962;50.084;8.794;2023-03-01T03:41:37;2.90;96.90
9847;DHT22;4962;50.084;8.794;2023-03-01T03:44:04;2.90;97.00
9847;DHT22;4962;50.084;8.794;2023-03-01T03:46:31;2.80;97.10
9847;DHT22;4962;50.084;8.794;2023-03-01T03:48:58;2.90;97.20
9847;DHT22;4962;50.084;8.794;2023-03-01T03:51:26;2.80;97.10
9847;DHT22;4962;50.084;8.794;2023-03-01T03:53:53;2.80;97.10
9847;DHT22;4962;50.084;8.794;2023-03-01T03:56:20;2.90;97.20
9847;DHT22;4962;50.084;8.794;2023-03-01T03:58:51;2.80;97.20
9847;DHT22;4962;50.084;8.794;2023-03-01T04:01:22;2.80;97.20
9847;DHT22;4962;50.084;8.794;2023-03-01T04:03:49;2.80;97.30
9847;DHT22;4962;50.084;8.794;2023-03-01T04:06:19;2.80;97.30
9847;DHT22;4962;50.084;8.794;2023-03-01T04:08:48;2.80;97.30
9847;DHT22;4962;50.084;8.794;2023-03-01T04:11:25;2.80;97.30
9847;DHT22;4962;50.084;8.794;2023-03-01T04:13:56;2.80;97.20
9847;DHT22;4962;50.084;8.794;2023-03-01T04:16:24;2.80;97.30
9847;DHT22;4962;50.084;8.794;2023-03-01T04:18:51;2.70;97.30
9847;DHT22;4962;50.084;8.794;2023-03-01T04:21:22;2.70;97.30
9847;DHT22;4962;50.084;8.794;2023-03-01T04:23:50;2.80;97.30
9847;DHT22;4962;50.084;8.794;2023-03-01T04:26:18;2.80;97.20
9847;DHT22;4962;50.084;8.794;2023-03-01T04:28:45;2.70;97.20
9847;DHT22;4962;50.084;8.794;2023-03-01T04:31:16;2.70;97.20
9847;DHT22;4962;50.084;8.794;2023-03-01T04:33:45;2.70;97.20
9847;DHT22;4962;50.084;8.794;2023-03-01T04:36:14;2.70;97.20
9847;DHT22;4962;50.084;8.794;2023-03-01T04:38:41;2.60;97.30
9847;DHT22;4962;50.084;8.794;2023-03-01T04:41:16;2.60;97.40
9847;DHT22;4962;50.084;8.794;2023-03-01T04:43:43;2.50;97.30
9847;DHT22;4962;50.084;8.794;2023-03-01T04:46:12;2.50;97.40
9847;DHT22;4962;50.084;8.794;2023-03-01T04:48:41;2.40;97.50
9847;DHT22;4962;50.084;8.794;2023-03-01T04:51:30;2.30;97.60
9847;DHT22;4962;50.084;8.794;2023-03-01T04:53:58;2.30;97.80
9847;DHT22;4962;50.084;8.794;2023-03-01T04:56:27;2.20;97.70
9847;DHT22;4962;50.084;8.794;2023-03-01T04:58:54;2.20;97.80
9847;DHT22;4962;50.084;8.794;2023-03-01T05:01:21;2.10;97.90
9847;DHT22;4962;50.084;8.794;2023-03-01T05:03:49;2.10;98.00
9847;DHT22;4962;50.084;8.794;2023-03-01T05:06:18;2.00;98.10
9847;DHT22;4962;50.084;8.794;2023-03-01T05:08:45;1.90;98.20
9847;DHT22;4962;50.084;8.794;2023-03-01T05:11:12;1.90;98.40
9847;DHT22;4962;50.084;8.794;2023-03-01T05:13:41;1.90;98.50
9847;DHT22;4962;50.084;8.794;2023-03-01T05:16:09;1.80;98.60
9847;DHT22;4962;50.084;8.794;2023-03-01T05:18:37;1.80;98.80
9847;DHT22;4962;50.084;8.794;2023-03-01T05:21:05;1.80;98.90
9847;DHT22;4962;50.084;8.794;2023-03-01T05:23:33;1.80;98.90
9847;DHT22;4962;50.084;8.794;2023-03-01T05:26:01;1.80;98.90
9847;DHT22;4962;50.084;8.794;2023-03-01T05:28:29;1.50;98.90
9847;DHT22;4962;50.084;8.794;2023-03-01T05:31:06;1.70;99.20
9847;DHT22;4962;50.084;8.794;2023-03-01T05:33:35;1.60;99.30
9847;DHT22;4962;50.084;8.794;2023-03-01T05:36:04;1.60;99.40
9847;DHT22;4962;50.084;8.794;2023-03-01T05:38:31;1.60;99.60
9847;DHT22;4962;50.084;8.794;2023-03-01T05:40:58;1.50;99.60
9847;DHT22;4962;50.084;8.794;2023-03-01T05:43:25;1.50;99.80
9847;DHT22;4962;50.084;8.794;2023-03-01T05:45:52;1.40;99.90
9847;DHT22;4962;50.084;8.794;2023-03-01T05:48:21;1.40;99.90
9847;DHT22;4962;50.084;8.794;2023-03-01T05:50:48;1.30;99.90
9847;DHT22;4962;50.084;8.794;2023-03-01T05:53:16;1.30;99.90
9847;DHT22;4962;50.084;8.794;2023-03-01T05:55:44;1.20;99.90
9847;DHT22;4962;50.084;8.794;2023-03-01T05:58:14;1.20;99.90
9847;DHT22;4962;50.084;8.794;2023-03-01T06:00:42;1.20;99.90
9847;DHT22;4962;50.084;8.794;2023-03-01T06:03:11;1.20;99.90
9847;DHT22;4962;50.084;8.794;2023-03-01T06:05:39;1.20;99.90
9847;DHT22;4962;50.084;8.794;2023-03-01T06:08:06;1.20;99.90
9847;DHT22;4962;50.084;8.794;2023-03-01T06:10:33;1.20;99.90
9847;DHT22;4962;50.084;8.794;2023-03-01T06:13:01;1.20;99.90
9847;DHT22;4962;50.084;8.794;2023-03-01T06:15:28;1.20;99.90
9847;DHT22;4962;50.084;8.794;2023-03-01T06:17:55;1.20;99.90
9847;DHT22;4962;50.084;8.794;2023-03-01T06:20:25;1.20;99.90
9847;DHT22;4962;50.084;8.794;2023-03-01T06:22:53;1.20;99.90
9847;DHT22;4962;50.084;8.794;2023-03-01T06:25:25;1.20;99.90
9847;DHT22;4962;50.084;8.794;2023-03-01T06:27:52;1.20;99.90
9847;DHT22;4962;50.084;8.794;2023-03-01T06:30:21;1.20;99.90
9847;DHT22;4962;50.084;8.794;2023-03-01T06:32:48;1.20;99.90
9847;DHT22;4962;50.084;8.794;2023-03-01T06:35:16;1.20;99.90
9847;DHT22;4962;50.084;8.794;2023-03-01T06:37:44;1.20;99.90
9847;DHT22;4962;50.084;8.794;2023-03-01T06:40:14;1.10;99.90
9847;DHT22;4962;50.084;8.794;2023-03-01T06:42:43;1.10;99.90
9847;DHT22;4962;50.084;8.794;2023-03-01T06:45:10;1.00;99.90
9847;DHT22;4962;50.084;8.794;2023-03-01T06:47:37;1.00;99.90
9847;DHT22;4962;50.084;8.794;2023-03-01T06:50:05;1.00;99.90
9847;DHT22;4962;50.084;8.794;2023-03-01T06:52:32;1.10;99.90
9847;DHT22;4962;50.084;8.794;2023-03-01T06:54:59;1.20;99.90
9847;DHT22;4962;50.084;8.794;2023-03-01T06:57:28;1.40;99.90
9847;DHT22;4962;50.084;8.794;2023-03-01T06:59:55;1.60;99.90
9847;DHT22;4962;50.084;8.794;2023-03-01T07:02:22;1.90;99.90
9847;DHT22;4962;50.084;8.794;2023-03-01T07:04:50;2.20;99.90
9847;DHT22;4962;50.084;8.794;2023-03-01T07:07:24;2.50;99.90
9847;DHT22;4962;50.084;8.794;2023-03-01T07:09:51;2.80;99.90
9847;DHT22;4962;50.084;8.794;2023-03-01T07:12:18;3.10;99.90
9847;DHT22;4962;50.084;8.794;2023-03-01T07:14:47;3.40;99.90
9847;DHT22;4962;50.084;8.794;2023-03-01T07:17:14;3.70;99.90
9847;DHT22;4962;50.084;8.794;2023-03-01T07:19:40;4.00;99.90
9847;DHT22;4962;50.084;8.794;2023-03-01T07:22:07;4.30;99.90
9847;DHT22;4962;50.084;8.794;2023-03-01T07:24:34;4.60;99.90
9847;DHT22;4962;50.084;8.794;2023-03-01T07:27:02;4.90;99.90
9847;DHT22;4962;50.084;8.794;2023-03-01T07:29:29;5.20;99.90
9847;DHT22;4962;50.084;8.794;2023-03-01T07:31:58;5.30;99.90
9847;DHT22;4962;50.084;8.794;2023-03-01T07:34:25;5.30;99.90
9847;DHT22;4962;50.084;8.794;2023-03-01T07:36:51;5.40;99.90
9847;DHT22;4962;50.084;8.794;2023-03-01T07:39:18;5.40;99.90
9847;DHT22;4962;50.084;8.794;2023-03-01T07:41:45;5.30;99.60
9847;DHT22;4962;50.084;8.794;2023-03-01T07:44:12;5.10;99.10
9847;DHT22;4962;50.084;8.794;2023-03-01T07:46:40;4.90;99.10
9847;DHT22;4962;50.084;8.794;2023-03-01T07:49:09;4.80;98.80
9847;DHT22;4962;50.084;8.794;2023-03-01T07:51:36;4.60;97.70
9847;DHT22;4962;50.084;8.794;2023-03-01T07:54:03;4.40;96.90
9847;DHT22;4962;50.084;8.794;2023-03-01T07:57:00;4.20;96.70
9847;DHT22;4962;50.084;8.794;2023-03-01T07:59:27;4.00;96.40
9847;DHT22;4962;50.084;8.794;2023-03-01T08:01:54;3.80;96.40
9847;DHT22;4962;50.084;8.794;2023-03-01T08:04:23;3.70;96.70
9847;DHT22;4962;50.084;8.794;2023-03-01T08:07:08;3.60;96.80
9847;DHT22;4962;50.084;8.794;2023-03-01T08:09:35;3.50;97.10
9847;DHT22;4962;50.084;8.794;2023-03-01T08:12:03;3.40;97.30
9847;DHT22;4962;50.084;8.794;2023-03-01T08:14:31;3.40;97.70
9847;DHT22;4962;50.084;8.794;2023-03-01T08:16:58;3.30;98.00
9847;DHT22;4962;50.084;8.794;2023-03-01T08:19:26;3.30;98.00
9847;DHT22;4962;50.084;8.794;2023-03-01T08:21:53;3.30;98.10
9847;DHT22;4962;50.084;8.794;2023-03-01T08:24:23;3.20;98.20
9847;DHT22;4962;50.084;8.794;2023-03-01T08:26:50;3.20;98.30
9847;DHT22;4962;50.084;8.794;2023-03-01T08:29:17;3.20;98.40
9847;DHT22;4962;50.084;8.794;2023-03-01T08:31:44;3.10;98.60
9847;DHT22;4962;50.084;8.794;2023-03-01T08:34:13;3.20;98.60
9847;DHT22;4962;50.084;8.794;2023-03-01T08:36:43;3.20;98.80
9847;DHT22;4962;50.084;8.794;2023-03-01T08:39:12;3.10;98.80
9847;DHT22;4962;50.084;8.794;2023-03-01T08:41:39;3.30;99.00
9847;DHT22;4962;50.084;8.794;2023-03-01T08:44:08;3.30;99.00
9847;DHT22;4962;50.084;8.794;2023-03-01T08:46:37;3.30;98.90
9847;DHT22;4962;50.084;8.794;2023-03-01T08:49:04;3.30;98.90
9847;DHT22;4962;50.084;8.794;2023-03-01T08:51:32;3.30;98.90
9847;DHT22;4962;50.084;8.794;2023-03-01T08:54:04;3.30;98.90
9847;DHT22;4962;50.084;8.794;2023-03-01T08:56:31;3.30;98.90
9847;DHT22;4962;50.084;8.794;2023-03-01T08:58:58;3.40;99.00
9847;DHT22;4962;50.084;8.794;2023-03-01T09:01:31;3.40;99.20
9847;DHT22;4962;50.084;8.794;2023-03-01T09:04:01;3.50;99.10
9847;DHT22;4962;50.084;8.794;2023-03-01T09:06:34;3.50;99.10
9847;DHT22;4962;50.084;8.794;2023-03-01T09:09:03;3.50;99.00
9847;DHT22;4962;50.084;8.794;2023-03-01T09:11:30;3.60;99.00
9847;DHT22;4962;50.084;8.794;2023-03-01T09:13:57;3.60;99.10
9847;DHT22;4962;50.084;8.794;2023-03-01T09:16:24;3.70;99.10
9847;DHT22;4962;50.084;8.794;2023-03-01T09:18:52;3.80;99.10
9847;DHT22;4962;50.084;8.794;2023-03-01T09:21:21;3.80;99.00
9847;DHT22;4962;50.084;8.794;2023-03-01T09:23:49;3.90;98.90
9847;DHT22;4962;50.084;8.794;2023-03-01T09:26:19;3.90;98.70
9847;DHT22;4962;50.084;8.794;2023-03-01T09:28:48;3.90;98.50
9847;DHT22;4962;50.084;8.794;2023-03-01T09:31:16;4.00;98.30
9847;DHT22;4962;50.084;8.794;2023-03-01T09:33:45;4.00;98.00
9847;DHT22;4962;50.084;8.794;2023-03-01T09:36:15;4.00;97.90
9847;DHT22;4962;50.084;8.794;2023-03-01T09:38:42;4.00;97.80
9847;DHT22;4962;50.084;8.794;2023-03-01T09:41:11;4.00;97.70
9847;DHT22;4962;50.084;8.794;2023-03-01T09:43:50;4.00;97.60
9847;DHT22;4962;50.084;8.794;2023-03-01T09:46:20;4.10;97.40
9847;DHT22;4962;50.084;8.794;2023-03-01T09:48:51;4.10;97.30
9847;DHT22;4962;50.084;8.794;2023-03-01T09:51:23;4.20;97.20
9847;DHT22;4962;50.084;8.794;2023-03-01T09:53:51;4.20;97.20
9847;DHT22;4962;50.084;8.794;2023-03-01T09:56:24;4.20;97.10
9847;DHT22;4962;50.084;8.794;2023-03-01T09:58:58;4.30;97.20
9847;DHT22;4962;50.084;8.794;2023-03-01T10:01:33;4.30;97.10
9847;DHT22;4962;50.084;8.794;2023-03-01T10:04:11;4.40;97.00
9847;DHT22;4962;50.084;8.794;2023-03-01T10:06:44;4.40;96.90
9847;DHT22;4962;50.084;8.794;2023-03-01T10:09:18;4.50;96.80
9847;DHT22;4962;50.084;8.794;2023-03-01T10:11:50;4.60;97.10
9847;DHT22;4962;50.084;8.794;2023-03-01T10:14:27;4.60;97.00
9847;DHT22;4962;50.084;8.794;2023-03-01T10:19:55;4.70;96.30
9847;DHT22;4962;50.084;8.794;2023-03-01T10:22:27;4.70;96.10
9847;DHT22;4962;50.084;8.794;2023-03-01T10:24:58;4.80;96.00
9847;DHT22;4962;50.084;8.794;2023-03-01T10:27:29;4.80;95.90
9847;DHT22;4962;50.084;8.794;2023-03-01T10:30:05;4.80;95.80
9847;DHT22;4962;50.084;8.794;2023-03-01T10:32:36;4.90;95.70
9847;DHT22;4962;50.084;8.794;2023-03-01T10:35:16;4.90;95.60
9847;DHT22;4962;50.084;8.794;2023-03-01T10:37:57;5.00;95.80
9847;DHT22;4962;50.084;8.794;2023-03-01T10:40:24;5.00;95.10
9847;DHT22;4962;50.084;8.794;2023-03-01T10:42:51;5.10;94.90
9847;DHT22;4962;50.084;8.794;2023-03-01T10:45:31;5.10;94.70
9847;DHT22;4962;50.084;8.794;2023-03-01T10:48:11;5.00;94.40
9847;DHT22;4962;50.084;8.794;2023-03-01T10:50:39;5.10;94.30
9847;DHT22;4962;50.084;8.794;2023-03-01T10:53:25;5.10;94.20
9847;DHT22;4962;50.084;8.794;2023-03-01T10:55:59;5.10;94.00
9847;DHT22;4962;50.084;8.794;2023-03-01T10:58:27;5.20;93.90
9847;DHT22;4962;50.084;8.794;2023-03-01T11:01:04;5.20;93.90
9847;DHT22;4962;50.084;8.794;2023-03-01T11:03:33;5.20;93.90
9847;DHT22;4962;50.084;8.794;2023-03-01T11:06:04;5.30;94.20
9847;DHT22;4962;50.084;8.794;2023-03-01T11:08:38;5.40;94.20
9847;DHT22;4962;50.084;8.794;2023-03-01T11:11:24;5.40;93.80
9847;DHT22;4962;50.084;8.794;2023-03-01T11:13:55;5.20;93.30
9847;DHT22;4962;50.084;8.794;2023-03-01T11:16:27;5.50;93.10
9847;DHT22;4962;50.084;8.794;2023-03-01T11:18:59;5.50;93.10
9847;DHT22;4962;50.084;8.794;2023-03-01T11:21:29;5.50;92.90
9847;DHT22;4962;50.084;8.794;2023-03-01T11:24:00;5.50;92.90
9847;DHT22;4962;50.084;8.794;2023-03-01T11:26:29;5.60;92.80
9847;DHT22;4962;50.084;8.794;2023-03-01T11:29:02;5.60;92.80
9847;DHT22;4962;50.084;8.794;2023-03-01T11:31:33;5.70;92.90
9847;DHT22;4962;50.084;8.794;2023-03-01T11:34:06;5.80;93.00
9847;DHT22;4962;50.084;8.794;2023-03-01T11:36:38;5.80;92.90
9847;DHT22;4962;50.084;8.794;2023-03-01T11:39:18;5.90;92.80
9847;DHT22;4962;50.084;8.794;2023-03-01T11:41:49;6.00;92.60
9847;DHT22;4962;50.084;8.794;2023-03-01T11:44:23;6.00;92.40
9847;DHT22;4962;50.084;8.794;2023-03-01T11:47:20;6.10;92.20
9847;DHT22;4962;50.084;8.794;2023-03-01T11:50:14;6.10;92.00
9847;DHT22;4962;50.084;8.794;2023-03-01T11:52:54;6.10;91.90
9847;DHT22;4962;50.084;8.794;2023-03-01T11:55:36;6.20;92.00
9847;DHT22;4962;50.084;8.794;2023-03-01T11:58:21;6.20;91.80
9847;DHT22;4962;50.084;8.794;2023-03-01T12:01:02;6.30;91.70
9847;DHT22;4962;50.084;8.794;2023-03-01T12:04:12;6.30;91.60
9847;DHT22;4962;50.084;8.794;2023-03-01T12:07:00;6.40;91.70
9847;DHT22;4962;50.084;8.794;2023-03-01T12:09:44;6.40;91.60
9847;DHT22;4962;50.084;8.794;2023-03-01T12:12:34;6.50;91.50
9847;DHT22;4962;50.084;8.794;2023-03-01T12:15:31;6.50;91.40
9847;DHT22;4962;50.084;8.794;2023-03-01T12:18:30;6.60;91.20
9847;DHT22;4962;50.084;8.794;2023-03-01T12:21:12;6.60;91.00
9847;DHT22;4962;50.084;8.794;2023-03-01T12:24:19;6.60;91.00
9847;DHT22;4962;50.084;8.794;2023-03-01T12:27:01;6.70;90.80
9847;DHT22;4962;50.084;8.794;2023-03-01T12:29:36;6.70;90.70
9847;DHT22;4962;50.084;8.794;2023-03-01T12:32:17;6.70;90.60
9847;DHT22;4962;50.084;8.794;2023-03-01T12:34:59;6.70;90.70
9847;DHT22;4962;50.084;8.794;2023-03-01T12:37:39;6.70;90.80
9847;DHT22;4962;50.084;8.794;2023-03-01T12:40:45;6.80;90.90
9847;DHT22;4962;50.084;8.794;2023-03-01T12:43:25;6.90;90.80
9847;DHT22;4962;50.084;8.794;2023-03-01T12:46:21;7.00;90.70
9847;DHT22;4962;50.084;8.794;2023-03-01T12:48:56;7.00;90.50
9847;DHT22;4962;50.084;8.794;2023-03-01T12:51:28;7.10;90.30
9847;DHT22;4962;50.084;8.794;2023-03-01T12:54:05;7.10;90.00
9847;DHT22;4962;50.084;8.794;2023-03-01T12:56:35;7.10;89.40
9847;DHT22;4962;50.084;8.794;2023-03-01T12:59:12;7.10;89.80
9847;DHT22;4962;50.084;8.794;2023-03-01T13:01:45;7.10;89.90
9847;DHT22;4962;50.084;8.794;2023-03-01T13:04:44;7.10;89.50
9847;DHT22;4962;50.084;8.794;2023-03-01T13:07:23;7.10;89.10
9847;DHT22;4962;50.084;8.794;2023-03-01T13:10:02;7.10;88.90
9847;DHT22;4962;50.084;8.794;2023-03-01T13:13:00;7.10;88.80
9847;DHT22;4962;50.084;8.794;2023-03-01T13:15:35;7.10;88.60
9847;DHT22;4962;50.084;8.794;2023-03-01T13:18:04;7.10;88.20
9847;DHT22;4962;50.084;8.794;2023-03-01T13:20:52;7.20;88.00
9847;DHT22;4962;50.084;8.794;2023-03-01T13:23:27;7.20;88.60
9847;DHT22;4962;50.084;8.794;2023-03-01T13:26:16;7.20;87.70
9847;DHT22;4962;50.084;8.794;2023-03-01T13:28:54;7.20;87.60
9847;DHT22;4962;50.084;8.794;2023-03-01T13:34:46;7.30;88.20
9847;DHT22;4962;50.084;8.794;2023-03-01T13:37:25;7.30;89.00
9847;DHT22;4962;50.084;8.794;2023-03-01T13:39:56;7.40;88.70
9847;DHT22;4962;50.084;8.794;2023-03-01T13:42:41;7.40;88.30
9847;DHT22;4962;50.084;8.794;2023-03-01T13:45:33;7.50;88.20
9847;DHT22;4962;50.084;8.794;2023-03-01T13:48:03;7.50;88.10
9847;DHT22;4962;50.084;8.794;2023-03-01T13:50:36;7.50;88.20
9847;DHT22;4962;50.084;8.794;2023-03-01T13:53:06;7.50;88.00
9847;DHT22;4962;50.084;8.794;2023-03-01T13:55:40;7.60;87.60
9847;DHT22;4962;50.084;8.794;2023-03-01T13:58:19;7.60;87.40
9847;DHT22;4962;50.084;8.794;2023-03-01T14:00:54;7.60;87.50
9847;DHT22;4962;50.084;8.794;2023-03-01T14:03:21;7.60;87.50
9847;DHT22;4962;50.084;8.794;2023-03-01T14:05:59;7.70;87.00
9847;DHT22;4962;50.084;8.794;2023-03-01T14:08:29;7.60;86.40
9847;DHT22;4962;50.084;8.794;2023-03-01T14:11:28;7.60;86.30
9847;DHT22;4962;50.084;8.794;2023-03-01T14:14:23;7.70;86.30
9847;DHT22;4962;50.084;8.794;2023-03-01T14:16:58;7.60;86.00
9847;DHT22;4962;50.084;8.794;2023-03-01T14:19:28;7.70;86.20
9847;DHT22;4962;50.084;8.794;2023-03-01T14:22:12;7.70;86.20
9847;DHT22;4962;50.084;8.794;2023-03-01T14:24:46;7.70;86.10
9847;DHT22;4962;50.084;8.794;2023-03-01T14:27:15;7.70;86.10
9847;DHT22;4962;50.084;8.794;2023-03-01T14:29:55;7.80;86.50
9847;DHT22;4962;50.084;8.794;2023-03-01T14:32:24;7.80;86.70
9847;DHT22;4962;50.084;8.794;2023-03-01T14:34:52;7.80;86.70
9847;DHT22;4962;50.084;8.794;2023-03-01T14:37:21;7.90;87.20
9847;DHT22;4962;50.084;8.794;2023-03-01T14:39:50;8.00;86.80
9847;DHT22;4962;50.084;8.794;2023-03-01T14:42:18;8.00;86.10
9847;DHT22;4962;50.084;8.794;2023-03-01T14:44:49;7.90;85.70
9847;DHT22;4962;50.084;8.794;2023-03-01T14:47:23;7.90;85.50
9847;DHT22;4962;50.084;8.794;2023-03-01T14:49:57;7.90;85.10
9847;DHT22;4962;50.084;8.794;2023-03-01T14:52:30;7.90;85.10
9847;DHT22;4962;50.084;8.794;2023-03-01T14:54:59;7.90;85.10
9847;DHT22;4962;50.084;8.794;2023-03-01T14:57:28;7.80;85.20
9847;DHT22;4962;50.084;8.794;2023-03-01T15:00:13;7.90;85.60
9847;DHT22;4962;50.084;8.794;2023-03-01T15:02:43;7.90;85.40
9847;DHT22;4962;50.084;8.794;2023-03-01T15:05:13;7.90;85.40
9847;DHT22;4962;50.084;8.794;2023-03-01T15:07:41;7.90;85.20
9847;DHT22;4962;50.084;8.794;2023-03-01T15:10:17;7.90;85.00
9847;DHT22;4962;50.084;8.794;2023-03-01T15:12:47;7.90;85.00
9847;DHT22;4962;50.084;8.794;2023-03-01T15:15:35;7.90;85.00
9847;DHT22;4962;50.084;8.794;2023-03-01T15:18:05;7.90;85.00
9847;DHT22;4962;50.084;8.794;2023-03-01T15:20:33;7.90;84.80
9847;DHT22;4962;50.084;8.794;2023-03-01T15:23:02;7.80;84.70
9847;DHT22;4962;50.084;8.794;2023-03-01T15:25:30;7.90;85.00
9847;DHT22;4962;50.084;8.794;2023-03-01T15:28:04;7.90;85.10
9847;DHT22;4962;50.084;8.794;2023-03-01T15:30:33;7.80;85.00
9847;DHT22;4962;50.084;8.794;2023-03-01T15:33:30;7.80;85.20
9847;DHT22;4962;50.084;8.794;2023-03-01T15:35:58;7.80;85.50
9847;DHT22;4962;50.084;8.794;2023-03-01T15:38:35;7.80;85.50
9847;DHT22;4962;50.084;8.794;2023-03-01T15:41:19;7.80;85.60
9847;DHT22;4962;50.084;8.794;2023-03-01T15:43:48;7.90;85.70
9847;DHT22;4962;50.084;8.794;2023-03-01T15:46:22;7.90;85.60
9847;DHT22;4962;50.084;8.794;2023-03-01T15:48:54;7.90;85.50
9847;DHT22;4962;50.084;8.794;2023-03-01T15:51:31;7.90;85.40
9847;DHT22;4962;50.084;8.794;2023-03-01T15:54:04;7.90;85.40
9847;DHT22;4962;50.084;8.794;2023-03-01T15:56:31;8.00;85.90
9847;DHT22;4962;50.084;8.794;2023-03-01T15:59:00;7.90;84.60
9847;DHT22;4962;50.084;8.794;2023-03-01T16:01:37;7.90;84.40
9847;DHT22;4962;50.084;8.794;2023-03-01T16:04:07;7.90;84.20
9847;DHT22;4962;50.084;8.794;2023-03-01T16:06:34;7.90;84.20
9847;DHT22;4962;50.084;8.794;2023-03-01T16:09:02;7.90;84.20
9847;DHT22;4962;50.084;8.794;2023-03-01T16:11:29;7.90;84.20
9847;DHT22;4962;50.084;8.794;2023-03-01T16:13:56;7.90;84.20
9847;DHT22;4962;50.084;8.794;2023-03-01T16:16:23;7.80;84.20
9847;DHT22;4962;50.084;8.794;2023-03-01T16:18:50;7.90;84.30
9847;DHT22;4962;50.084;8.794;2023-03-01T16:21:22;7.80;84.10
9847;DHT22;4962;50.084;8.794;2023-03-01T16:23:50;7.80;84.10
9847;DHT22;4962;50.084;8.794;2023-03-01T16:26:17;7.80;84.10
9847;DHT22;4962;50.084;8.794;2023-03-01T16:28:45;7.90;84.10
9847;DHT22;4962;50.084;8.794;2023-03-01T16:31:17;7.90;83.80
9847;DHT22;4962;50.084;8.794;2023-03-01T16:33:44;7.80;83.60
9847;DHT22;4962;50.084;8.794;2023-03-01T16:36:16;7.80;83.40
9847;DHT22;4962;50.084;8.794;2023-03-01T16:38:45;7.80;83.20
9847;DHT22;4962;50.084;8.794;2023-03-01T16:41:14;7.80;83.10
9847;DHT22;4962;50.084;8.794;2023-03-01T16:43:42;7.80;83.00
9847;DHT22;4962;50.084;8.794;2023-03-01T16:46:12;7.70;82.70
9847;DHT22;4962;50.084;8.794;2023-03-01T16:48:40;7.70;82.60
9847;DHT22;4962;50.084;8.794;2023-03-01T16:51:08;7.70;82.40